ADDS METAR Data INFO
IDs: Format: Raw Decoded Include TAF

Data at: 0033 UTC 23 Oct 2017

PAKW 222353Z AUTO 18008KT 10SM FEW035 10/06 A2978 RMK AO2 SLP086 60005 T01000056 10106 20072 51048 TSNO
PAKW 222253Z AUTO 18005KT 10SM FEW032 10/06 A2974 RMK AO2 RAB24E39 SLP072 P0001 T01000056 TSNO
PAKW 222153Z AUTO 21008KT 10SM FEW038 BKN060 11/06 A2969 RMK AO2 SLP055 T01060061 TSNO
PAKW 222053Z AUTO 20007KT 10SM SCT047 BKN055 11/07 A2964 RMK AO2 RAE22 SLP038 P0001 60004 T01060072 53039 TSNO
PAKW 222013Z AUTO 22006KT 4SM -RA BR FEW019 BKN036 OVC050 08/07 A2961 RMK AO2 P0001 T00830067 TSNO
PAKW 222006Z AUTO VRB04KT 4SM -RA BR FEW019 BKN028 OVC036 09/07 A2960 RMK AO2 P0001 T00890072 TSNO
PAKW 221953Z AUTO 20006KT 4SM -RA BR FEW019 FEW027 OVC038 09/07 A2958 RMK AO2 RAE15B38 SLP019 P0002 T00890072 TSNO
PAKW 221915Z AUTO 19006KT 9SM FEW012 SCT020 BKN038 08/07 A2955 RMK AO2 RAE15 P0001 T00830067 TSNO
PAKW 221908Z AUTO 18006KT 2 1/2SM -RA BR FEW010 BKN033 OVC042 08/07 A2954 RMK AO2 P0001 T00830067 TSNO
PAKW 221900Z AUTO 18007KT 1 3/4SM -RA BR FEW013 BKN021 OVC027 08/06 A2954 RMK AO2 VIS 1 1/4V2 1/2 PRESRR P0001 T00830061 TSNO
PAKW 221853Z AUTO 21005KT 4SM -RA BR FEW013 BKN029 OVC036 09/07 A2953 RMK AO2 RAE21B41 SLP000 P0001 T00890067 TSNO
PAKW 221753Z AUTO 21004KT 8SM -RA SCT004 OVC019 07/06 A2948 RMK RAB05E15B51 SLP982 P0001 60021 T00720056 10072 20056 51036 TSNO VIA AUTODIAL
PAKW 221750Z AUTO 20005KT 10SM SCT004 OVC021 07/06 A2947 RMK RAB05E15 P0001 TSNO VIA AUTODIAL
PAKW 221734Z AUTO 20003KT 10SM BKN004 BKN023 OVC028 07/06 A2946 RMK AO2 RAB05E15 PRESRR P0001 T00670056 TSNO
PAKW 221721Z AUTO 00000KT 10SM FEW005 OVC025 07/06 A2945 RMK AO2 RAB05E15 P0001 T00670056 TSNO
PAKW 221653Z AUTO 18003KT 10SM OVC029 06/05 A2942 RMK AO2 RAE01 SLP963 P0000 T00610050 TSNO
PAKW 221642Z AUTO 21005KT 10SM OVC029 06/05 A2941 RMK AO2 RAE01 P0000 T00610050 TSNO
PAKW 221553Z AUTO 00000KT 10SM -RA BKN041 OVC055 06/04 A2937 RMK AO2 SLP945 P0003 T00610044 TSNO
PAKW 221453Z AUTO 00000KT 5SM -RA BR FEW029 OVC034 06/05 A2932 RMK AO2 SLP930 P0010 60017 T00610050 53035 TSNO
PAKW 221353Z AUTO 00000KT 7SM -RA OVC035 06/05 A2928 RMK AO2 SLP916 P0005 T00610050 TSNO
PAKW 221253Z AUTO 00000KT 5SM -RA BR OVC039 06/04 A2925 RMK AO2 SLP905 P0002 T00610044 TSNO
PAKW 221153Z AUTO 00000KT 10SM -RA FEW013 BKN049 OVC070 06/04 A2922 RMK AO2 SLP895 P0002 60015 70043 T00560044 10067 20056 51024 TSNO
PAKW 221053Z AUTO 00000KT 5SM -RA BR SCT020 BKN026 OVC032 06/04 A2920 RMK AO2 SLP888 P0008 T00560044 TSNO
PAKW 220953Z AUTO VRB04KT 9SM -RA OVC031 06/04 A2917 RMK AO2 SLP877 P0003 T00610044 TSNO
PAKW 220853Z AUTO 00000KT 10SM -RA BKN033 OVC044 06/04 A2915 RMK AO2 RAB13 SLP871 P0002 60002 T00610039 400780033 53016 TSNO
PAKW 220753Z AUTO VRB04KT 10SM FEW018 OVC040 06/04 A2913 RMK AO2 RAE41 SLP864 P0000 T00610039 TSNO
PAKW 220653Z AUTO 04006KT 10SM -RA OVC048 06/04 A2911 RMK AO2 RAB01 SLP859 P0000 T00560039 TSNO
PAKW 220604Z AUTO 00000KT 10SM -RA SCT016 OVC047 06/04 A2910 RMK AO2 RAB01 P0000 T00560039 TSNO
PAKW 220553Z AUTO VRB03KT 10SM BKN016 OVC047 06/04 A2910 RMK AO2 RAE34 SLP855 P0001 60006 T00560039 10067 20056 53013 TSNO
PAKW 220539Z AUTO 07004KT 10SM BKN015 OVC049 06/04 A2910 RMK AO2 RAE34 P0001 T00610039 TSNO
PAKW 220453Z AUTO VRB03KT 10SM -RA OVC046 06/04 A2909 RMK AO2 RAB20 SLP850 P0001 T00610039 TSNO
PAKW 220353Z AUTO 10005KT 10SM SCT015 OVC046 06/04 A2907 RMK AO2 RAE12 SLP844 P0000 T00610039 TSNO
PAKW 220334Z AUTO 02004KT 10SM BKN015 BKN032 OVC050 06/04 A2907 RMK AO2 RAE12 P0000 T00610039 TSNO
PAKW 220322Z AUTO 00000KT 10SM BKN013 BKN030 OVC049 07/04 A2907 RMK AO2 RAE12 P0000 T00670039 TSNO
PAKW 220253Z AUTO VRB05KT 8SM -RA FEW014 SCT030 OVC042 06/04 A2906 RMK AO2 SLP841 P0002 60004 T00610044 53006 TSNO
PAKW 220216Z AUTO 06003KT 10SM -RA SCT016 BKN035 OVC043 06/04 A2906 RMK AO2 P0000 T00610044 TSNO
PAKW 220153Z AUTO 03006KT 10SM -RA BKN014 OVC037 06/04 A2905 RMK AO2 RAB0058 SLP837 P0002 T00610044 TSNO
PAKW 220053Z AUTO 03005G15KT 10SM SCT049 OVC060 07/04 A2904 RMK AO2 SLP836 T00670044 TSNO
PAKW 212353Z AUTO 02005KT 10SM FEW060 06/04 A2904 RMK AO2 SLP835 60011 T00610039 10078 20050 50001 TSNO
PAKW 212253Z AUTO VRB03KT 10SM FEW014 BKN047 OVC060 07/04 A2906 RMK AO2 RAE30 SLP839 P0001 T00720044 TSNO
PAKW 212153Z AUTO 00000KT 2 1/2SM RA BR FEW017 SCT028 OVC037 06/04 A2907 RMK AO2 SLP846 P0006 T00610044 TSNO
PAKW 212053Z AUTO 00000KT 6SM -RA SCT024 BKN043 OVC060 08/05 A2904 RMK AO2 SLP835 P0002 60004 T00780050 58009 TSNO
PAKW 211953Z AUTO 25003KT 10SM -RA FEW030 BKN038 OVC045 07/04 A2906 RMK AO2 SLP841 P0001 T00670044 TSNO
PAKW 211853Z AUTO VRB04KT 10SM -RA SCT034 BKN041 OVC050 06/03 A2906 RMK AO2 PK WND 04027/1758 SLP840 P0001 T00610028 TSNO
PAKW 211753Z AUTO 04015G29KT 10SM -RA BKN043 OVC055 05/02 A2907 RMK AO2 PK WND 04029/1749 SLP844 P0001 60011 T00500022 10056 20039 56044 TSNO
PAKW 211653Z AUTO 05015G25KT 6SM -RA BKN041 OVC050 04/02 A2910 RMK AO2 PK WND 04028/1641 SLP855 P0004 T00440017 TSNO
PAKW 211553Z AUTO 04012G22KT 7SM -RA BKN034 OVC045 04/02 A2914 RMK AO2 RAB04 PRESFR SLP868 P0005 T00440022 TSNO
PAKW 211453Z AUTO 05013G19KT 10SM SCT047 BKN055 OVC090 06/02 A2920 RMK AO2 SLP888 60001 T00560017 58060 TSNO
PAKW 211353Z AUTO 03010G16KT 10SM SCT043 BKN050 OVC080 04/02 A2926 RMK AO2 RAE15 SLP910 P0001 T00390017 TSNO
PAKW 211253Z AUTO 08005KT 10SM -RA BKN049 BKN070 OVC100 05/02 A2934 RMK AO2 RAE13B40 SLP935 P0000 T00500017 TSNO